createdAt,value
2023-07-24T00:00:00.219Z,97486.50
2023-07-24T00:02:28.574Z,97516.38
2023-07-24T00:04:56.600Z,97523.03
2023-07-24T00:07:24.842Z,97539.94
2023-07-24T00:09:53.812Z,97578.78
2023-07-24T00:12:21.927Z,97583.63
2023-07-24T00:14:50.204Z,97608.16
2023-07-24T00:17:19.772Z,97599.47
2023-07-24T00:19:48.006Z,97601.13
2023-07-24T00:22:16.467Z,97563.03
2023-07-24T00:24:44.893Z,97584.47
2023-07-24T00:27:14.110Z,97619.16
2023-07-24T00:29:42.445Z,97623.94
2023-07-24T00:32:11.260Z,97607.81
2023-07-24T00:34:40.750Z,97639.28
2023-07-24T00:37:09.705Z,97652.09
2023-07-24T00:39:37.828Z,97640.63
2023-07-24T00:42:06.380Z,97614.34
2023-07-24T00:44:34.472Z,97625.56
2023-07-24T00:47:02.970Z,97622.91
2023-07-24T00:49:31.603Z,97590.78
2023-07-24T00:52:01.460Z,97567.66
2023-07-24T00:54:35.060Z,97559.81
2023-07-24T00:57:04.019Z,97547.97
2023-07-24T00:59:32.675Z,97557.19
2023-07-24T01:02:03.163Z,97559.94
2023-07-24T01:04:31.516Z,97558.00
2023-07-24T01:07:01.623Z,97553.97
2023-07-24T01:09:30.029Z,97523.81
2023-07-24T01:12:05.292Z,97461.19
2023-07-24T01:14:43.533Z,97447.72
2023-07-24T01:17:13.710Z,97468.88
2023-07-24T01:19:48.961Z,97469.97
2023-07-24T01:22:39.353Z,97491.91
2023-07-24T01:25:13.587Z,97503.09
2023-07-24T01:27:48.050Z,97506.59
2023-07-24T01:30:19.242Z,97530.53
2023-07-24T01:32:48.373Z,97497.00
2023-07-24T01:35:17.142Z,97509.13
2023-07-24T01:37:46.250Z,97485.72
2023-07-24T01:40:15.862Z,97459.59
2023-07-24T01:42:44.631Z,97385.47
2023-07-24T01:45:14.229Z,97293.22
2023-07-24T01:47:42.387Z,97319.41
2023-07-24T01:50:11.013Z,97342.22
2023-07-24T01:52:39.154Z,97367.22
2023-07-24T01:55:08.262Z,97378.84
2023-07-24T01:57:36.600Z,97376.44
2023-07-24T02:00:05.872Z,97389.97
2023-07-24T02:02:35.820Z,97382.91
2023-07-24T02:05:04.193Z,97383.84
2023-07-24T02:07:32.476Z,97403.66
2023-07-24T02:10:00.948Z,97403.31
2023-07-24T02:12:29.339Z,97390.22
2023-07-24T02:14:58.540Z,97407.09
2023-07-24T02:17:26.877Z,97406.53
2023-07-24T02:19:56.723Z,97402.94
2023-07-24T02:22:25.312Z,97391.81
2023-07-24T02:24:53.825Z,97379.94
2023-07-24T02:27:29.726Z,97388.75
2023-07-24T02:29:58.134Z,97385.13
2023-07-24T02:32:26.315Z,97399.22
2023-07-24T02:34:56.449Z,97406.25
2023-07-24T02:37:24.900Z,97406.25
2023-07-24T02:39:54.372Z,97396.06
2023-07-24T02:42:22.648Z,97399.06
2023-07-24T02:44:51.398Z,97394.94
2023-07-24T02:47:19.694Z,97390.69
2023-07-24T02:49:48.210Z,97401.53
2023-07-24T02:52:18.219Z,97400.72
2023-07-24T02:54:47.382Z,97398.88
2023-07-24T02:57:16.213Z,97408.50
2023-07-24T02:59:44.800Z,97397.19
2023-07-24T03:02:13.338Z,97398.13
2023-07-24T03:04:41.813Z,97399.06
2023-07-24T03:07:10.059Z,97393.69
2023-07-24T03:09:39.947Z,97393.50
2023-07-24T03:12:09.099Z,97392.63
2023-07-24T03:14:37.573Z,97391.56
2023-07-24T03:17:06.259Z,97376.22
2023-07-24T03:19:35.359Z,97379.94
2023-07-24T03:22:04.021Z,97401.81
2023-07-24T03:24:34.000Z,97383.66
2023-07-24T03:27:03.803Z,97384.41
2023-07-24T03:29:32.396Z,97361.13
2023-07-24T03:32:01.051Z,97374.38
2023-07-24T03:34:29.173Z,97371.78
2023-07-24T03:36:57.414Z,97360.47
2023-07-24T03:39:26.039Z,97367.59
2023-07-24T03:41:54.427Z,97369.94
2023-07-24T03:44:24.364Z,97362.88
2023-07-24T03:46:52.648Z,97362.16
2023-07-24T03:49:21.208Z,97357.63
2023-07-24T03:51:49.889Z,97353.06
2023-07-24T03:54:18.182Z,97347.31
2023-07-24T03:56:46.508Z,97331.56
2023-07-24T03:59:14.756Z,97311.72
2023-07-24T04:01:44.250Z,97318.59
2023-07-24T04:04:12.750Z,97317.84
2023-07-24T04:06:41.008Z,97306.72
2023-07-24T04:09:09.361Z,97306.19
2023-07-24T04:11:39.464Z,97306.66
2023-07-24T04:14:07.775Z,97310.81
2023-07-24T04:16:36.038Z,97307.28
2023-07-24T04:19:06.717Z,97316.34
2023-07-24T04:21:34.976Z,97315.06
2023-07-24T04:24:03.411Z,97306.81
2023-07-24T04:26:31.805Z,97298.72
2023-07-24T04:29:00.306Z,97283.97
2023-07-24T04:31:28.586Z,97283.16
2023-07-24T04:33:56.930Z,97264.63
2023-07-24T04:36:28.396Z,97281.41
2023-07-24T04:38:57.120Z,97286.88
2023-07-24T04:41:25.763Z,97289.88
2023-07-24T04:43:54.411Z,97289.69
2023-07-24T04:46:22.500Z,97297.38
2023-07-24T04:48:51.005Z,97289.69
2023-07-24T04:51:19.899Z,97287.25
2023-07-24T04:53:49.625Z,97291.94
2023-07-24T04:56:17.922Z,97273.78
2023-07-24T04:58:46.155Z,97281.47
2023-07-24T05:01:14.276Z,97286.81
2023-07-24T05:03:42.746Z,97287.50
2023-07-24T05:06:11.361Z,97282.34
2023-07-24T05:08:39.741Z,97282.16
2023-07-24T05:11:10.058Z,97297.78
2023-07-24T05:13:38.272Z,97318.06
2023-07-24T05:16:07.030Z,97337.47
2023-07-24T05:18:35.213Z,97336.22
2023-07-24T05:21:03.385Z,97325.81
2023-07-24T05:23:31.483Z,97297.63
2023-07-24T05:26:00.587Z,97291.34
2023-07-24T05:28:30.577Z,97285.25
2023-07-24T05:31:02.264Z,97277.34
2023-07-24T05:33:30.563Z,97277.38
2023-07-24T05:36:01.360Z,97277.25
2023-07-24T05:38:30.159Z,97263.25
2023-07-24T05:40:58.970Z,97260.25
2023-07-24T05:43:28.830Z,97273.03
2023-07-24T05:46:00.285Z,97270.97
2023-07-24T05:48:29.362Z,97281.91
2023-07-24T05:50:58.228Z,97276.34
2023-07-24T05:53:28.634Z,97252.63
2023-07-24T05:56:01.744Z,97243.31
2023-07-24T05:58:30.366Z,97254.16
2023-07-24T06:01:01.146Z,97248.31
2023-07-24T06:03:29.720Z,97259.63
2023-07-24T06:05:58.602Z,97270.25
2023-07-24T06:08:27.647Z,97265.66
2023-07-24T06:10:56.592Z,97271.31
2023-07-24T06:13:24.955Z,97262.34
2023-07-24T06:15:57.717Z,97272.88
2023-07-24T06:18:28.504Z,97270.00
2023-07-24T06:20:57.145Z,97256.16
2023-07-24T06:23:25.908Z,97241.41
2023-07-24T06:25:55.149Z,97247.25
2023-07-24T06:28:24.443Z,97251.09
2023-07-24T06:30:55.599Z,97254.06
2023-07-24T06:33:24.832Z,97243.38
2023-07-24T06:35:55.912Z,97242.72
2023-07-24T06:38:26.918Z,97235.34
2023-07-24T06:40:55.705Z,97250.00
2023-07-24T06:43:26.121Z,97241.50
2023-07-24T06:45:54.794Z,97239.22
2023-07-24T06:48:23.517Z,97223.59
2023-07-24T06:50:55.593Z,97207.25
2023-07-24T06:53:24.348Z,97201.56
2023-07-24T06:55:52.875Z,97184.59
2023-07-24T06:58:21.886Z,97190.41
2023-07-24T07:00:52.098Z,97179.69
2023-07-24T07:03:21.121Z,97164.84
2023-07-24T07:05:49.689Z,97169.28
2023-07-24T07:08:19.881Z,97182.09
2023-07-24T07:10:49.484Z,97184.94
2023-07-24T07:13:18.004Z,97199.88
2023-07-24T07:15:46.400Z,97200.06
2023-07-24T07:18:16.245Z,97201.25
2023-07-24T07:20:48.024Z,97185.03
2023-07-24T07:23:17.173Z,97185.94
2023-07-24T07:25:47.973Z,97164.50
2023-07-24T07:28:16.992Z,97176.88
2023-07-24T07:30:46.288Z,97184.09
2023-07-24T07:33:15.686Z,97180.53
2023-07-24T07:35:44.619Z,97177.50
2023-07-24T07:38:13.040Z,97174.25
2023-07-24T07:40:41.507Z,97178.78
2023-07-24T07:43:11.699Z,97169.59
2023-07-24T07:45:40.044Z,97159.00
2023-07-24T07:48:08.871Z,97171.94
2023-07-24T07:50:38.274Z,97176.25
2023-07-24T07:53:06.992Z,97174.44
2023-07-24T07:55:35.445Z,97173.88
2023-07-24T07:58:03.911Z,97181.22
2023-07-24T08:00:34.071Z,97176.22
2023-07-24T08:03:02.518Z,97161.09
2023-07-24T08:05:31.054Z,97177.72
2023-07-24T08:07:59.716Z,97188.56
2023-07-24T08:10:27.854Z,97182.66
2023-07-24T08:12:56.800Z,97186.41
2023-07-24T08:15:25.000Z,97186.81
2023-07-24T08:17:55.679Z,97180.91
2023-07-24T08:20:24.370Z,97173.59
2023-07-24T08:22:52.896Z,97181.34
2023-07-24T08:25:22.332Z,97170.44
2023-07-24T08:28:04.654Z,97177.63
2023-07-24T08:30:34.945Z,97189.50
2023-07-24T08:33:06.446Z,97195.69
2023-07-24T08:35:35.336Z,97185.09
2023-07-24T08:38:03.897Z,97180.94
2023-07-24T08:40:32.661Z,97183.41
2023-07-24T08:43:01.146Z,97172.91
2023-07-24T08:45:29.881Z,97161.31
2023-07-24T08:47:59.795Z,97150.91
2023-07-24T08:50:29.833Z,97139.41
2023-07-24T08:52:59.388Z,97142.47
2023-07-24T08:55:28.707Z,97149.09
2023-07-24T08:57:57.956Z,97133.50
2023-07-24T09:00:30.601Z,97129.59
2023-07-24T09:02:58.997Z,97129.94
2023-07-24T09:05:28.942Z,97136.13
2023-07-24T09:07:57.354Z,97125.81
2023-07-24T09:10:27.973Z,97115.88
2023-07-24T09:12:57.772Z,97110.91
2023-07-24T09:15:26.494Z,97117.63
2023-07-24T09:17:55.951Z,97122.91
2023-07-24T09:23:14.121Z,97120.75
2023-07-24T09:25:46.044Z,97127.09
2023-07-24T09:28:15.899Z,97109.78
2023-07-24T09:30:53.456Z,97109.78
2023-07-24T09:33:21.920Z,97109.16
2023-07-24T09:36:00.123Z,97106.53
2023-07-24T09:38:31.021Z,97088.41
2023-07-24T09:41:00.069Z,97085.47
2023-07-24T09:43:39.970Z,97085.38
2023-07-24T09:46:11.800Z,97084.88
2023-07-24T09:48:43.398Z,97087.75
2023-07-24T09:51:31.501Z,97103.69
2023-07-24T09:54:09.312Z,97108.94
2023-07-24T09:56:49.068Z,97109.59
2023-07-24T09:59:21.939Z,97106.75
2023-07-24T10:01:51.173Z,97089.75
2023-07-24T10:04:20.635Z,97085.22
2023-07-24T10:06:49.572Z,97067.38
2023-07-24T10:09:22.786Z,97067.63
2023-07-24T10:11:50.891Z,97070.13
2023-07-24T10:14:21.574Z,97076.00
2023-07-24T10:16:50.885Z,97075.69
2023-07-24T10:19:19.554Z,97073.06
2023-07-24T10:21:48.968Z,97076.22
2023-07-24T10:24:35.514Z,97075.00
2023-07-24T10:27:10.141Z,97089.28
2023-07-24T10:29:40.265Z,97094.47
2023-07-24T10:32:21.294Z,97099.78
2023-07-24T10:34:58.748Z,97100.75
2023-07-24T10:37:35.314Z,97099.66
2023-07-24T10:40:05.694Z,97105.56
2023-07-24T10:42:35.329Z,97110.09
2023-07-24T10:45:08.207Z,97108.91
2023-07-24T10:47:37.368Z,97127.22
2023-07-24T10:50:06.416Z,97114.38
2023-07-24T10:52:35.782Z,97116.19
2023-07-24T10:55:06.729Z,97128.50
2023-07-24T10:57:35.885Z,97130.44
2023-07-24T11:00:05.216Z,97128.06
2023-07-24T11:02:33.814Z,97159.69
2023-07-24T11:05:02.538Z,97166.53
2023-07-24T11:07:37.310Z,97178.78
2023-07-24T11:10:20.262Z,97171.00
2023-07-24T11:12:50.132Z,97170.06
2023-07-24T11:15:18.542Z,97165.59
2023-07-24T11:17:46.966Z,97172.69
2023-07-24T11:20:16.665Z,97185.31
2023-07-24T11:22:46.849Z,97186.66
2023-07-24T11:25:16.929Z,97195.81
2023-07-24T11:27:46.722Z,97202.91
2023-07-24T11:30:21.400Z,97202.84
2023-07-24T11:32:51.853Z,97173.81
2023-07-24T11:35:23.058Z,97199.47
2023-07-24T11:37:51.513Z,97188.13
2023-07-24T11:40:23.111Z,97202.41
2023-07-24T11:42:51.801Z,97199.09
2023-07-24T11:45:20.570Z,97197.16
2023-07-24T11:47:51.447Z,97188.97
2023-07-24T11:50:20.224Z,97182.63
2023-07-24T11:52:49.976Z,97173.16
2023-07-24T11:55:19.545Z,97163.13
2023-07-24T11:58:00.272Z,97145.06
2023-07-24T12:00:29.233Z,97161.53
2023-07-24T12:03:02.244Z,97150.50
2023-07-24T12:05:30.843Z,97141.41
2023-07-24T12:08:04.661Z,97142.28
2023-07-24T12:10:33.468Z,97133.75
2023-07-24T12:13:03.286Z,97120.38
2023-07-24T12:15:32.716Z,97101.72
2023-07-24T12:18:02.100Z,97095.09
2023-07-24T12:20:31.536Z,97093.75
2023-07-24T12:23:00.658Z,97100.66
2023-07-24T12:25:29.216Z,97097.31
2023-07-24T12:27:57.334Z,97095.94
2023-07-24T12:30:28.419Z,97094.97
2023-07-24T12:32:57.044Z,97090.16
2023-07-24T12:35:25.462Z,97077.59
2023-07-24T12:37:53.838Z,97081.19
2023-07-24T12:40:22.839Z,97075.53
2023-07-24T12:42:51.474Z,97072.50
2023-07-24T12:45:20.017Z,97074.16
2023-07-24T12:47:50.918Z,97063.56
2023-07-24T12:50:20.196Z,97047.69
2023-07-24T12:52:48.737Z,97047.69
2023-07-24T12:55:17.472Z,97067.81
2023-07-24T12:57:45.832Z,97071.44
2023-07-24T13:00:15.221Z,97078.31
2023-07-24T13:02:43.348Z,97067.28
2023-07-24T13:05:13.220Z,97041.91
2023-07-24T13:07:41.548Z,97065.31
2023-07-24T13:10:12.526Z,97055.81
2023-07-24T13:12:41.222Z,97050.91
2023-07-24T13:15:09.968Z,97049.53
2023-07-24T13:17:39.053Z,97056.00
2023-07-24T13:20:09.277Z,97050.31
2023-07-24T13:22:39.210Z,97057.22
2023-07-24T13:25:09.688Z,97057.09
2023-07-24T13:27:38.277Z,97056.75
2023-07-24T13:30:07.292Z,97051.69
2023-07-24T13:32:35.578Z,97043.25
2023-07-24T13:35:03.805Z,97045.06
2023-07-24T13:37:32.371Z,97027.84
2023-07-24T13:40:01.893Z,97028.53
2023-07-24T13:42:30.092Z,97015.66
2023-07-24T13:44:58.225Z,96994.69
2023-07-24T13:47:26.485Z,97005.06
2023-07-24T13:49:55.001Z,97001.44
2023-07-24T13:52:23.444Z,97010.84
2023-07-24T13:54:51.721Z,97010.88
2023-07-24T13:57:21.382Z,96984.06
2023-07-24T13:59:49.724Z,96972.44
2023-07-24T14:02:18.114Z,96980.91
2023-07-24T14:04:46.705Z,96981.38
2023-07-24T14:07:15.162Z,96983.44
2023-07-24T14:09:43.839Z,96975.84
2023-07-24T14:12:12.342Z,96970.06
2023-07-24T14:14:42.133Z,96981.66
2023-07-24T14:17:13.076Z,96986.22
2023-07-24T14:19:44.945Z,96976.69
2023-07-24T14:22:13.411Z,96957.41
2023-07-24T14:24:41.665Z,96959.50
2023-07-24T14:27:09.861Z,96964.56
2023-07-24T14:29:38.206Z,96957.22
2023-07-24T14:32:10.067Z,96940.97
2023-07-24T14:34:42.829Z,96929.31
2023-07-24T14:37:11.792Z,96926.25
2023-07-24T14:39:40.326Z,96936.09
2023-07-24T14:42:08.620Z,96918.81
2023-07-24T14:44:36.838Z,96917.28
2023-07-24T14:47:05.122Z,96930.22
2023-07-24T14:49:34.577Z,96924.38
2023-07-24T14:52:02.880Z,96923.81
2023-07-24T14:54:31.945Z,96917.00
2023-07-24T14:57:07.614Z,96914.06
2023-07-24T14:59:43.141Z,96920.88
2023-07-24T15:02:11.410Z,96929.75
2023-07-24T15:04:41.263Z,96915.22
2023-07-24T15:07:09.807Z,96913.09
2023-07-24T15:09:37.965Z,96907.22
2023-07-24T15:12:06.778Z,96906.44
2023-07-24T15:14:35.622Z,96909.84
2023-07-24T15:17:03.863Z,96911.09
2023-07-24T15:19:32.088Z,96912.19
2023-07-24T15:22:01.894Z,96904.69
2023-07-24T15:24:30.305Z,96908.28
2023-07-24T15:26:58.719Z,96889.63
2023-07-24T15:29:27.256Z,96889.31
2023-07-24T15:31:55.682Z,96893.91
2023-07-24T15:34:24.125Z,96899.31
2023-07-24T15:36:52.220Z,96906.25
2023-07-24T15:39:21.956Z,96913.59
2023-07-24T15:41:50.399Z,96898.75
2023-07-24T15:44:18.690Z,96909.47
2023-07-24T15:46:48.195Z,96913.53
2023-07-24T15:49:17.120Z,96904.44
2023-07-24T15:51:45.893Z,96913.84
2023-07-24T15:54:14.202Z,96910.16
2023-07-24T15:56:43.734Z,96913.84
2023-07-24T15:59:12.012Z,96921.25
2023-07-24T16:01:40.319Z,96925.50
2023-07-24T16:04:08.609Z,96937.63
2023-07-24T16:06:37.171Z,96922.34
2023-07-24T16:09:05.994Z,96923.47
2023-07-24T16:11:34.688Z,96917.59
2023-07-24T16:14:05.719Z,96919.69
2023-07-24T16:16:34.184Z,96907.69
2023-07-24T16:19:17.087Z,96912.25
2023-07-24T16:21:47.258Z,96907.84
2023-07-24T16:24:18.694Z,96912.78
2023-07-24T16:26:47.636Z,96905.59
2023-07-24T16:29:18.240Z,96914.78
2023-07-24T16:31:46.602Z,96932.56
2023-07-24T16:34:15.455Z,96961.28
2023-07-24T16:36:43.897Z,96971.84
2023-07-24T16:39:12.274Z,96968.97
2023-07-24T16:41:40.565Z,96960.22
2023-07-24T16:44:15.167Z,96935.69
2023-07-24T16:46:45.282Z,96928.66
2023-07-24T16:49:13.791Z,96938.00
2023-07-24T16:51:42.039Z,96930.22
2023-07-24T16:54:10.325Z,96920.44
2023-07-24T16:56:38.551Z,96914.25
2023-07-24T16:59:06.666Z,96925.84
2023-07-24T17:01:36.181Z,96951.44
2023-07-24T17:04:06.489Z,96970.09
2023-07-24T17:06:36.545Z,96962.06
2023-07-24T17:09:05.011Z,96952.03
2023-07-24T17:11:33.584Z,96933.44
2023-07-24T17:14:02.068Z,96935.97
2023-07-24T17:16:31.120Z,96911.44
2023-07-24T17:18:59.359Z,96855.56
2023-07-24T17:21:29.227Z,96852.28
2023-07-24T17:23:57.862Z,96873.06
2023-07-24T17:26:26.939Z,96878.72
2023-07-24T17:28:55.016Z,96874.88
2023-07-24T17:31:23.380Z,96885.06
2023-07-24T17:33:51.745Z,96887.47
2023-07-24T17:36:20.157Z,96894.38
2023-07-24T17:38:49.852Z,96870.53
2023-07-24T17:41:18.052Z,96869.72
2023-07-24T17:43:46.561Z,96879.47
2023-07-24T17:46:17.642Z,96869.28
2023-07-24T17:48:46.379Z,96864.88
2023-07-24T17:51:14.498Z,96872.31
2023-07-24T17:53:42.665Z,96887.59
2023-07-24T17:56:13.710Z,96905.59
2023-07-24T17:58:41.792Z,96933.84
2023-07-24T18:01:11.353Z,96936.84
2023-07-24T18:03:39.811Z,96930.06
2023-07-24T18:06:08.100Z,96950.06
2023-07-24T18:08:36.371Z,96955.94
2023-07-24T18:11:04.947Z,96960.28
2023-07-24T18:13:34.748Z,96973.59
2023-07-24T18:16:03.117Z,96970.06
2023-07-24T18:18:31.741Z,96956.69
2023-07-24T18:21:08.293Z,96954.34
2023-07-24T18:23:37.608Z,96960.31
2023-07-24T18:26:05.803Z,96973.81
2023-07-24T18:28:35.867Z,96967.28
2023-07-24T18:31:04.086Z,96973.00
2023-07-24T18:33:32.432Z,96978.06
2023-07-24T18:36:00.563Z,96978.38
2023-07-24T18:38:28.638Z,96989.25
2023-07-24T18:40:56.876Z,96978.91
2023-07-24T18:43:25.108Z,96990.47
2023-07-24T18:45:56.990Z,97003.16
2023-07-24T18:48:27.294Z,96999.50
2023-07-24T18:50:55.526Z,96998.63
2023-07-24T18:53:23.755Z,97003.97
2023-07-24T18:55:53.781Z,96997.59
2023-07-24T18:58:22.089Z,97012.75
2023-07-24T19:00:50.653Z,97016.53
2023-07-24T19:03:20.231Z,97011.66
2023-07-24T19:05:49.721Z,97007.25
2023-07-24T19:08:18.115Z,97010.53
2023-07-24T19:10:46.298Z,97021.72
2023-07-24T19:13:14.393Z,97019.28
2023-07-24T19:15:42.892Z,97008.16
2023-07-24T19:18:11.088Z,97011.84
2023-07-24T19:20:40.548Z,97007.69
2023-07-24T19:23:08.726Z,97022.66
2023-07-24T19:25:37.767Z,97023.84
2023-07-24T19:28:06.691Z,97036.56
2023-07-24T19:30:35.252Z,97024.97
2023-07-24T19:33:03.850Z,97036.53
2023-07-24T19:35:32.052Z,97044.94
2023-07-24T19:38:02.135Z,97049.78
2023-07-24T19:40:30.493Z,97042.50
2023-07-24T19:42:59.028Z,97037.72
2023-07-24T19:45:29.118Z,97046.09
2023-07-24T19:47:58.817Z,97052.66
2023-07-24T19:50:27.226Z,97047.44
2023-07-24T19:52:56.529Z,97041.56
2023-07-24T19:55:26.191Z,97057.34
2023-07-24T19:57:54.301Z,97037.56
2023-07-24T20:00:24.060Z,97056.31
2023-07-24T20:02:54.676Z,97054.56
2023-07-24T20:05:23.990Z,97054.91
2023-07-24T20:07:52.108Z,97051.81
2023-07-24T20:10:20.336Z,97057.03
2023-07-24T20:12:49.806Z,97058.38
2023-07-24T20:15:18.317Z,97060.19
2023-07-24T20:17:46.566Z,97061.97
2023-07-24T20:20:15.211Z,97072.69
2023-07-24T20:22:43.453Z,97067.31
2023-07-24T20:25:11.734Z,97071.59
2023-07-24T20:27:39.970Z,97067.56
2023-07-24T20:30:10.814Z,97073.72
2023-07-24T20:32:39.716Z,97064.84
2023-07-24T20:35:09.027Z,97068.16
2023-07-24T20:37:37.092Z,97061.88
2023-07-24T20:40:05.740Z,97066.88
2023-07-24T20:42:34.807Z,97070.16
2023-07-24T20:45:02.985Z,97074.44
2023-07-24T20:47:32.757Z,97073.50
2023-07-24T20:50:01.473Z,97079.66
2023-07-24T20:52:31.140Z,97076.56
2023-07-24T20:54:59.296Z,97084.88
2023-07-24T20:57:27.530Z,97094.59
2023-07-24T20:59:56.192Z,97089.81
2023-07-24T21:02:24.405Z,97097.28
2023-07-24T21:04:56.382Z,97096.47
2023-07-24T21:07:24.562Z,97101.19
2023-07-24T21:09:52.660Z,97108.41
2023-07-24T21:12:20.861Z,97120.34
2023-07-24T21:14:49.515Z,97117.25
2023-07-24T21:17:17.971Z,97123.88
2023-07-24T21:19:46.114Z,97118.56
2023-07-24T21:22:15.828Z,97131.03
2023-07-24T21:24:44.178Z,97118.00
2023-07-24T21:27:13.395Z,97130.78
2023-07-24T21:29:41.912Z,97131.72
2023-07-24T21:32:10.270Z,97132.44
2023-07-24T21:34:38.579Z,97117.78
2023-07-24T21:37:07.072Z,97118.31
2023-07-24T21:39:36.699Z,97118.91
2023-07-24T21:42:05.407Z,97118.66
2023-07-24T21:44:33.585Z,97118.06
2023-07-24T21:47:01.806Z,97111.91
2023-07-24T21:49:32.388Z,97115.31
2023-07-24T21:52:01.510Z,97117.06
2023-07-24T21:54:29.760Z,97126.66
2023-07-24T21:56:59.658Z,97123.09
2023-07-24T21:59:27.832Z,97124.50
2023-07-24T22:01:55.910Z,97129.19
2023-07-24T22:04:24.283Z,97130.00
2023-07-24T22:06:52.504Z,97134.72
2023-07-24T22:09:20.648Z,97132.22
2023-07-24T22:11:48.946Z,97146.91
2023-07-24T22:14:18.423Z,97142.97
2023-07-24T22:16:46.525Z,97146.81
2023-07-24T22:19:16.148Z,97146.94
2023-07-24T22:21:44.691Z,97138.63
2023-07-24T22:24:13.090Z,97139.91
2023-07-24T22:26:41.432Z,97143.22
2023-07-24T22:29:09.618Z,97151.16
2023-07-24T22:31:39.188Z,97147.72
2023-07-24T22:34:07.405Z,97147.41
2023-07-24T22:36:35.557Z,97138.50
2023-07-24T22:39:06.541Z,97138.72
2023-07-24T22:41:34.810Z,97148.59
2023-07-24T22:44:02.833Z,97151.38
2023-07-24T22:46:31.101Z,97155.63
2023-07-24T22:49:00.801Z,97150.41
2023-07-24T22:51:29.178Z,97144.31
2023-07-24T22:53:57.752Z,97133.50
2023-07-24T22:56:25.860Z,97136.31
2023-07-24T22:59:21.737Z,97146.38
2023-07-24T23:01:51.904Z,97142.63
2023-07-24T23:04:24.083Z,97147.13
2023-07-24T23:06:53.014Z,97140.56
2023-07-24T23:09:21.163Z,97148.47
2023-07-24T23:11:49.328Z,97148.91
2023-07-24T23:14:17.577Z,97152.84
2023-07-24T23:16:45.841Z,97160.66
2023-07-24T23:19:14.081Z,97158.34
2023-07-24T23:21:43.623Z,97153.56
2023-07-24T23:24:11.817Z,97152.13
2023-07-24T23:26:39.893Z,97158.47
2023-07-24T23:29:08.022Z,97163.25
2023-07-24T23:31:36.190Z,97161.91
2023-07-24T23:34:04.316Z,97149.44
2023-07-24T23:36:32.612Z,97154.09
2023-07-24T23:39:02.156Z,97144.94
2023-07-24T23:41:30.607Z,97137.59
2023-07-24T23:43:59.158Z,97150.16
2023-07-24T23:46:27.182Z,97150.78
2023-07-24T23:48:55.229Z,97141.09
2023-07-24T23:51:24.902Z,97137.03
2023-07-24T23:53:52.987Z,97145.16
2023-07-24T23:56:22.448Z,97141.81
2023-07-24T23:58:50.463Z,97141.00
